Terminal Aerodrome Forecast
Issued by NWS

Home | Current Version | Previous Version | Text Only | Print | Product List | Glossary On
Versions: 1 2 3 4 5 6 7 8 9 10 11 12 13 14 15 16 17 18 19 20 21 22 23 24 25
000
FTUS46 KSGX 280500
TAFSAN
TAF
KSAN 280520Z 2806/2912 34005KT P6SM SKC
     FM281900 29009KT P6SM SKC
     FM290200 27005KT P6SM SCT015
     FM291000 VRB04KT P6SM BKN010=

USA.gov is the U.S. government's official web portal to all federal, state and local government web resources and services.